Time;durP1;ratioP1;P1;durP2;ratioP2;P2;SDS_P1;SDS_P2;PMS_P1;PMS_P2;Temp;Humidity;BMP_temperature;BMP_pressure;BME280_temperature;BME280_humidity;BME280_pressure;Samples;Min_cycle;Max_cycle;Signal;HPM_P1;HPM_P2
2022/12/15 00:40:59;;;;;;;24.55;16.20;;;;;;;-4.66;100.00;99336.06;5040297;28;20237;-74
2022/12/15 00:43:26;;;;;;;26.13;16.70;;;;;;;-4.63;100.00;99334.31;5047185;28;20212;-74
2022/12/15 00:48:39;;;;;;;22.10;13.63;;;;;;;-4.50;100.00;99336.91;5037103;28;20291;-75
2022/12/15 00:51:05;;;;;;;24.60;14.23;;;;;;;-4.53;100.00;99342.19;5039725;28;20241;-75
2022/12/15 01:20:57;;;;;;;25.10;15.10;;;;;;;-5.11;100.00;99377.19;5041911;28;20232;-74
2022/12/15 01:23:24;;;;;;;29.70;16.73;;;;;;;-5.20;100.00;99392.94;5054718;28;20225;-74
2022/12/15 01:25:51;;;;;;;25.33;16.30;;;;;;;-5.14;100.00;99400.81;5051400;28;20218;-74
2022/12/15 01:28:18;;;;;;;29.20;16.67;;;;;;;-5.13;100.00;99397.31;5051941;28;20221;-74
2022/12/15 01:30:45;;;;;;;27.80;17.13;;;;;;;-5.11;100.00;99392.94;5067892;28;20257;-74
2022/12/15 01:33:14;;;;;;;30.67;17.13;;;;;;;-5.19;100.00;99397.31;5062436;28;20205;-74
2022/12/15 01:35:40;;;;;;;32.63;17.35;;;;;;;-5.19;100.00;99397.31;5051582;28;20695;-74
2022/12/15 01:38:08;;;;;;;27.00;16.92;;;;;;;-5.19;100.00;99399.94;5050898;28;20206;-74
2022/12/15 01:40:49;;;;;;;32.08;19.13;;;;;;;-5.24;100.00;99402.56;5056123;28;20289;-74
2022/12/15 01:43:17;;;;;;;32.97;17.75;;;;;;;-5.22;100.00;99419.19;5049856;28;20197;-74
2022/12/15 01:45:50;;;;;;;34.22;17.65;;;;;;;-5.11;100.00;99419.19;5056441;28;20213;-74
2022/12/15 01:48:30;;;;;;;27.90;16.35;;;;;;;-5.07;100.00;99424.44;5066528;28;20628;-73
2022/12/15 01:51:03;;;;;;;28.50;17.13;;;;;;;-5.10;100.00;99420.97;5048947;28;20237;-75
2022/12/15 01:53:34;;;;;;;29.77;15.98;;;;;;;-5.16;100.00;99421.81;5038487;28;20273;-74
2022/12/15 01:56:03;;;;;;;32.85;17.45;;;;;;;-5.14;100.00;99412.19;5037465;28;20202;-75
2022/12/15 01:58:30;;;;;;;28.00;16.88;;;;;;;-5.10;100.00;99418.34;5037742;28;20232;-75
2022/12/15 02:00:58;;;;;;;28.05;16.92;;;;;;;-5.04;100.00;99411.34;5036171;28;20205;-76
2022/12/15 02:03:27;;;;;;;25.95;15.55;;;;;;;-4.98;100.00;99418.34;5043298;28;20220;-74
2022/12/15 02:05:55;;;;;;;25.85;16.42;;;;;;;-5.05;100.00;99425.34;5038463;28;20224;-74
2022/12/15 02:08:22;;;;;;;24.45;14.82;;;;;;;-5.03;100.00;99420.09;5037588;28;20230;-75
2022/12/15 02:11:07;;;;;;;25.08;16.00;;;;;;;-5.07;100.00;99421.81;5019443;28;20202;-74
2022/12/15 02:13:44;;;;;;;22.63;15.05;;;;;;;-5.06;100.00;99412.22;5038367;28;20241;-75
2022/12/15 02:16:19;;;;;;;26.83;16.30;;;;;;;-5.11;100.00;99420.09;5037279;28;20201;-74
2022/12/15 02:18:59;;;;;;;23.83;15.68;;;;;;;-5.13;100.00;99432.34;5041515;28;20741;-75
2022/12/15 02:21:29;;;;;;;23.13;14.65;;;;;;;-5.15;100.00;99444.59;5056457;28;20204;-74
2022/12/15 02:24:30;;;;;;;25.10;16.20;;;;;;;-5.30;100.00;99437.53;5054798;28;20224;-73
2022/12/15 02:27:34;;;;;;;28.55;17.02;;;;;;;-5.14;100.00;99438.44;5053986;28;20265;-75
2022/12/15 02:30:25;;;;;;;24.92;16.35;;;;;;;-5.18;100.00;99449.81;5035530;28;20628;-74
2022/12/15 02:33:04;;;;;;;22.92;15.70;;;;;;;-5.20;100.00;99443.69;5033618;28;20189;-75
2022/12/15 02:35:40;;;;;;;31.33;15.45;;;;;;;-5.20;100.00;99448.97;5041487;28;20189;-76
2022/12/15 02:38:08;;;;;;;22.48;14.77;;;;;;;-5.19;100.00;99448.06;5044821;28;20216;-75
2022/12/15 02:40:35;;;;;;;24.98;15.85;;;;;;;-5.28;100.00;99437.53;5040693;28;20209;-75
2022/12/15 02:43:05;;;;;;;27.33;14.85;;;;;;;-5.33;100.00;99448.03;5038142;28;20356;-75
2022/12/15 02:45:43;;;;;;;28.02;15.90;;;;;;;-5.35;100.00;99447.16;5035603;28;20226;-76
2022/12/15 02:48:27;;;;;;;24.70;16.00;;;;;;;-5.46;100.00;99439.22;5035844;28;20200;-75
2022/12/15 02:51:11;;;;;;;30.30;18.58;;;;;;;-5.50;100.00;99441.81;5036604;28;20194;-75
2022/12/15 02:53:55;;;;;;;25.30;15.55;;;;;;;-5.51;100.00;99442.72;5035001;28;20206;-74
2022/12/15 02:56:31;;;;;;;26.38;14.70;;;;;;;-5.53;100.00;99447.94;5042793;28;20220;-75
2022/12/15 02:59:04;;;;;;;28.80;16.45;;;;;;;-5.61;100.00;99454.03;5037753;28;20251;-74
2022/12/15 03:01:36;;;;;;;25.20;16.50;;;;;;;-5.66;100.00;99457.50;5033961;28;20213;-76
2022/12/15 03:04:07;;;;;;;26.17;16.17;;;;;;;-5.66;100.00;99465.38;5030677;28;20212;-74
2022/12/15 03:06:33;;;;;;;26.40;16.80;;;;;;;-5.67;100.00;99458.38;5035900;28;20597;-74
2022/12/15 03:09:00;;;;;;;26.50;16.20;;;;;;;-5.66;100.00;99459.25;5029595;28;20226;-75
2022/12/15 03:11:27;;;;;;;24.15;15.85;;;;;;;-5.76;100.00;99460.97;5036883;28;20272;-75
2022/12/15 03:13:54;;;;;;;26.00;16.35;;;;;;;-5.83;100.00;99477.53;5037441;28;20198;-75
2022/12/15 03:16:21;;;;;;;28.92;17.35;;;;;;;-5.88;100.00;99481.84;5036365;28;20197;-75
2022/12/15 03:18:49;;;;;;;28.75;17.05;;;;;;;-5.87;100.00;99476.63;5050629;22;20228;-75
2022/12/15 03:21:15;;;;;;;29.25;16.13;;;;;;;-5.90;100.00;99478.38;5046513;28;20289;-73
2022/12/15 03:23:42;;;;;;;27.63;17.08;;;;;;;-6.05;100.00;99484.41;5043093;28;20218;-76
2022/12/15 03:26:08;;;;;;;26.85;16.77;;;;;;;-5.97;100.00;99487.97;5052050;28;20222;-74
2022/12/15 03:28:35;;;;;;;27.15;16.95;;;;;;;-5.98;100.00;99486.19;5049236;28;20226;-76
2022/12/15 03:31:01;;;;;;;30.08;17.63;;;;;;;-5.99;100.00;99486.19;5061118;28;20237;-73
2022/12/15 03:33:28;;;;;;;27.85;16.75;;;;;;;-6.02;100.00;99481.78;5053818;28;20233;-74
2022/12/15 03:35:56;;;;;;;32.72;16.75;;;;;;;-5.98;100.00;99491.44;5062843;28;20226;-73
2022/12/15 03:38:22;;;;;;;28.02;17.30;;;;;;;-5.98;100.00;99494.06;5041866;28;20257;-75
2022/12/15 03:40:49;;;;;;;26.80;16.75;;;;;;;-6.04;100.00;99490.53;5045045;28;20202;-75
2022/12/15 03:43:16;;;;;;;33.33;18.63;;;;;;;-6.10;100.00;99499.25;5033203;28;20580;-72
2022/12/15 03:45:42;;;;;;;30.63;17.50;;;;;;;-6.19;100.00;99505.28;5049988;28;20258;-75
2022/12/15 03:48:09;;;;;;;30.38;18.83;;;;;;;-6.35;100.00;99504.28;5050710;28;20209;-76
2022/12/15 03:50:36;;;;;;;33.95;18.65;;;;;;;-6.20;100.00;99500.03;5037395;28;20252;-74
2022/12/15 03:53:05;;;;;;;29.70;18.17;;;;;;;-6.14;100.00;99503.56;5038917;28;20199;-74
2022/12/15 03:55:32;;;;;;;31.75;19.80;;;;;;;-6.03;100.00;99508.03;5046063;28;20193;-73
2022/12/15 03:57:59;;;;;;;25.33;17.38;;;;;;;-6.03;100.00;99497.53;5038830;28;20202;-73
2022/12/15 04:00:25;;;;;;;36.72;20.48;;;;;;;-5.98;100.00;99501.06;5050378;28;20798;-74
2022/12/15 04:02:52;;;;;;;28.67;18.40;;;;;;;-5.97;100.00;99505.41;5054568;28;20202;-73
2022/12/15 04:05:21;;;;;;;31.90;18.25;;;;;;;-5.92;100.00;99512.44;5046953;28;20244;-73
2022/12/15 04:07:48;;;;;;;29.17;18.88;;;;;;;-5.84;100.00;99504.59;5048841;28;20227;-72
2022/12/15 04:10:16;;;;;;;27.10;17.58;;;;;;;-5.80;100.00;99508.13;5062873;28;20229;-73
2022/12/15 04:12:43;;;;;;;28.55;18.33;;;;;;;-5.93;100.00;99508.03;5038359;28;20308;-72
2022/12/15 04:15:10;;;;;;;30.50;17.60;;;;;;;-5.82;100.00;99508.13;5036509;28;20226;-72
2022/12/15 04:17:37;;;;;;;29.27;16.75;;;;;;;-5.75;100.00;99509.91;5037654;28;20641;-73
2022/12/15 04:20:11;;;;;;;28.27;17.90;;;;;;;-5.80;100.00;99511.63;5033666;28;20276;-73
2022/12/15 04:22:39;;;;;;;38.45;18.05;;;;;;;-5.73;100.00;99515.19;5040928;28;20296;-72
2022/12/15 05:33:52;;;;;;;31.00;17.75;;;;;;;-6.22;100.00;99552.41;5036314;28;20247;-73
2022/12/15 05:36:18;;;;;;;25.88;17.80;;;;;;;-6.26;100.00;99548.03;5039836;28;20202;-73
2022/12/15 05:38:47;;;;;;;30.30;17.33;;;;;;;-6.19;100.00;99557.69;5043126;28;20222;-75
2022/12/15 05:41:14;;;;;;;29.73;18.20;;;;;;;-6.22;100.00;99559.41;5047207;28;20217;-75
2022/12/15 05:43:41;;;;;;;37.05;20.55;;;;;;;-6.17;100.00;99562.94;5037065;28;20615;-75
2022/12/15 05:46:07;;;;;;;35.97;19.35;;;;;;;-6.14;100.00;99568.22;5046600;28;20677;-75
2022/12/15 05:48:34;;;;;;;33.53;18.85;;;;;;;-6.02;100.00;99570.94;5038268;28;20247;-75
2022/12/15 05:51:04;;;;;;;31.65;20.02;;;;;;;-5.94;100.00;99564.00;5048933;28;20202;-75
2022/12/15 05:53:31;;;;;;;27.83;17.27;;;;;;;-5.76;100.00;99559.75;5038032;28;20293;-77
2022/12/15 05:56:01;;;;;;;30.20;17.77;;;;;;;-5.73;100.00;99570.25;5035997;28;20270;-74
2022/12/15 05:58:28;;;;;;;33.50;19.40;;;;;;;-5.61;100.00;99577.31;5040535;28;20284;-76
2022/12/15 06:00:54;;;;;;;34.58;20.90;;;;;;;-5.60;100.00;99572.09;5023528;28;20210;-74
2022/12/15 06:03:21;;;;;;;33.05;18.13;;;;;;;-5.55;100.00;99585.25;5038503;28;20730;-74
2022/12/15 06:05:48;;;;;;;37.50;20.15;;;;;;;-5.54;100.00;99587.88;5031703;28;20224;-76
2022/12/15 06:08:15;;;;;;;34.63;19.73;;;;;;;-5.45;100.00;99590.56;5036653;28;20200;-74
2022/12/15 06:10:42;;;;;;;35.42;19.35;;;;;;;-5.34;100.00;99585.34;5041105;28;20218;-74
2022/12/15 06:13:09;;;;;;;32.47;18.88;;;;;;;-5.27;100.00;99594.16;5035428;28;20611;-73
2022/12/15 06:15:35;;;;;;;34.22;20.67;;;;;;;-5.22;100.00;99591.53;5030644;28;20198;-75
2022/12/15 06:18:02;;;;;;;45.13;22.70;;;;;;;-5.14;100.00;99595.09;5032601;28;20231;-77
2022/12/15 06:20:28;;;;;;;38.58;23.80;;;;;;;-5.04;100.00;99592.53;5035207;28;20222;-73
2022/12/15 06:22:55;;;;;;;35.35;20.10;;;;;;;-5.04;100.00;99604.78;5041106;28;20677;-76
2022/12/15 06:25:23;;;;;;;34.85;19.00;;;;;;;-4.95;100.00;99615.34;5051746;28;20236;-75
2022/12/15 06:27:49;;;;;;;37.88;20.95;;;;;;;-4.83;100.00;99604.88;5043919;28;20239;-77
2022/12/15 06:30:17;;;;;;;38.30;23.02;;;;;;;-4.79;100.00;99621.53;5055164;28;20252;-75
2022/12/15 06:32:43;;;;;;;39.47;22.30;;;;;;;-4.72;100.00;99619.81;5042997;28;20725;-74
2022/12/15 06:35:10;;;;;;;31.77;20.60;;;;;;;-4.69;100.00;99619.81;5041345;28;20201;-73
2022/12/15 06:37:36;;;;;;;34.53;21.63;;;;;;;-4.64;100.00;99618.06;5040763;28;20211;-73
2022/12/15 06:40:03;;;;;;;40.17;23.15;;;;;;;-4.53;100.00;99618.97;5040039;28;20308;-73
2022/12/15 06:42:31;;;;;;;39.38;22.55;;;;;;;-4.34;100.00;99619.94;5048385;28;20287;-74
2022/12/15 06:44:58;;;;;;;41.35;24.45;;;;;;;-4.20;100.00;99622.59;5042837;28;20293;-76
2022/12/15 06:47:24;;;;;;;40.03;22.83;;;;;;;-4.14;100.00;99619.94;5039724;28;20236;-74
2022/12/15 06:49:51;;;;;;;42.83;24.13;;;;;;;-4.07;100.00;99618.19;5056262;28;20284;-74
2022/12/15 06:52:18;;;;;;;53.95;29.88;;;;;;;-4.02;100.00;99630.50;5041882;28;20293;-73
2022/12/15 06:54:44;;;;;;;48.20;26.13;;;;;;;-3.85;100.00;99637.53;5044078;28;20313;-71
2022/12/15 06:57:11;;;;;;;49.35;25.50;;;;;;;-3.83;100.00;99634.00;5043104;28;20261;-73
2022/12/15 06:59:39;;;;;;;46.45;24.48;;;;;;;-3.72;100.00;99630.53;5052356;28;20257;-74
2022/12/15 07:02:15;;;;;;;42.65;25.80;;;;;;;-3.73;100.00;99634.91;5050348;28;20198;-72
2022/12/15 07:04:41;;;;;;;41.20;24.17;;;;;;;-3.68;100.00;99638.41;5034766;28;20198;-73
2022/12/15 07:07:09;;;;;;;42.15;25.30;;;;;;;-3.65;100.00;99642.78;5038920;28;20221;-74
2022/12/15 07:09:35;;;;;;;43.22;23.55;;;;;;;-3.59;100.00;99643.69;5052839;28;20289;-72
2022/12/15 07:12:02;;;;;;;36.33;23.92;;;;;;;-3.54;100.00;99645.44;5039270;28;20209;-73
2022/12/15 07:14:29;;;;;;;41.38;23.60;;;;;;;-3.58;100.00;99645.41;5035470;28;20228;-75
2022/12/15 07:16:57;;;;;;;40.60;24.05;;;;;;;-3.50;100.00;99655.09;5021787;28;20282;-74
2022/12/15 07:19:23;;;;;;;42.85;23.50;;;;;;;-3.38;100.00;99660.34;5049940;28;20324;-74
2022/12/15 07:21:50;;;;;;;40.72;22.35;;;;;;;-3.45;100.00;99667.34;5040034;28;20240;-74
2022/12/15 07:24:16;;;;;;;42.00;25.13;;;;;;;-3.42;100.00;99662.09;5047996;28;20281;-74
2022/12/15 07:26:45;;;;;;;39.78;22.80;;;;;;;-3.38;100.00;99653.31;5054998;28;20210;-75
2022/12/15 07:29:12;;;;;;;43.67;22.50;;;;;;;-3.28;100.00;99653.28;5033303;28;20215;-73
2022/12/15 07:31:38;;;;;;;39.58;22.50;;;;;;;-3.24;100.00;99653.28;5057071;28;20206;-73
2022/12/15 07:34:06;;;;;;;39.58;23.17;;;;;;;-3.20;100.00;99657.69;5045885;28;20261;-74
2022/12/15 07:36:34;;;;;;;40.67;24.00;;;;;;;-3.16;100.00;99659.44;5051293;28;20273;-76
2022/12/15 07:39:01;;;;;;;36.00;21.70;;;;;;;-3.18;100.00;99661.19;5038196;28;20221;-74
2022/12/15 07:41:28;;;;;;;38.47;21.85;;;;;;;-3.10;100.00;99653.25;5055443;28;20679;-76
2022/12/15 07:43:58;;;;;;;38.78;23.42;;;;;;;-3.12;100.00;99652.41;5049899;28;20206;-74
2022/12/15 07:46:24;;;;;;;43.72;23.63;;;;;;;-3.12;100.00;99659.41;5036632;28;20214;-74
2022/12/15 07:48:52;;;;;;;41.97;22.98;;;;;;;-3.01;100.00;99662.91;5032860;28;20215;-75
2022/12/15 07:51:22;;;;;;;39.35;23.50;;;;;;;-2.95;100.00;99652.34;5037861;28;20214;-74
2022/12/15 07:53:50;;;;;;;37.65;22.52;;;;;;;-2.86;100.00;99654.09;5043413;28;20291;-74
2022/12/15 07:56:17;;;;;;;36.40;21.90;;;;;;;-2.76;100.00;99658.44;5045520;28;20232;-74
2022/12/15 07:58:44;;;;;;;40.50;22.98;;;;;;;-2.67;100.00;99673.34;5062567;28;20281;-75
2022/12/15 08:01:12;;;;;;;43.80;21.75;;;;;;;-2.73;100.00;99669.88;5051433;28;20206;-75
2022/12/15 08:03:39;;;;;;;44.20;23.08;;;;;;;-2.66;100.00;99681.25;5059707;28;20268;-74
2022/12/15 08:06:06;;;;;;;37.80;20.98;;;;;;;-2.73;100.00;99688.31;5044140;28;20247;-74
2022/12/15 08:08:34;;;;;;;42.53;21.08;;;;;;;-2.72;100.00;99691.81;5054704;28;20202;-75
2022/12/15 08:11:04;;;;;;;33.83;21.38;;;;;;;-2.67;100.00;99683.91;5043875;28;20192;-75
2022/12/15 08:13:32;;;;;;;40.05;23.08;;;;;;;-2.68;100.00;99679.53;5046560;28;20648;-75
2022/12/15 08:15:59;;;;;;;38.30;21.98;;;;;;;-2.65;100.00;99671.59;5051293;28;20254;-73
2022/12/15 08:18:26;;;;;;;35.08;21.10;;;;;;;-2.62;100.00;99669.84;5051462;28;20242;-73
2022/12/15 08:20:52;;;;;;;34.88;20.10;;;;;;;-2.56;100.00;99671.56;5048247;28;20237;-73
2022/12/15 08:23:19;;;;;;;38.60;22.08;;;;;;;-2.57;100.00;99680.38;5051124;28;20233;-73
2022/12/15 08:25:47;;;;;;;39.72;22.50;;;;;;;-2.53;100.00;99676.84;5052855;28;20195;-73
2022/12/15 08:28:14;;;;;;;39.65;20.83;;;;;;;-2.49;100.00;99670.66;5052190;28;20194;-72
2022/12/15 08:30:41;;;;;;;37.45;21.52;;;;;;;-2.48;100.00;99679.47;5049809;28;20226;-72
2022/12/15 08:33:07;;;;;;;41.45;20.63;;;;;;;-2.39;100.00;99680.28;5053067;28;20249;-73
2022/12/15 08:35:34;;;;;;;36.58;21.48;;;;;;;-2.37;100.00;99681.16;5054956;28;20189;-74
2022/12/15 08:38:04;;;;;;;40.38;20.20;;;;;;;-2.36;100.00;99685.53;5054739;28;20228;-76
2022/12/15 08:40:30;;;;;;;35.78;21.92;;;;;;;-2.31;100.00;99682.88;5048921;28;20270;-74
2022/12/15 08:42:58;;;;;;;38.85;22.73;;;;;;;-2.26;100.00;99682.84;5053323;28;20208;-77
2022/12/15 08:45:25;;;;;;;33.75;20.30;;;;;;;-2.27;100.00;99679.34;5052992;28;20374;-74
2022/12/15 08:47:51;;;;;;;33.30;19.83;;;;;;;-2.28;100.00;99690.78;5051135;28;20313;-74
2022/12/15 08:50:18;;;;;;;30.27;19.10;;;;;;;-2.22;100.00;99693.38;5051627;28;20289;-73
2022/12/15 08:52:45;;;;;;;38.13;20.40;;;;;;;-2.22;100.00;99696.00;5053020;28;20201;-74
2022/12/15 08:55:11;;;;;;;33.15;20.30;;;;;;;-2.20;100.00;99696.88;5056449;28;20192;-77
2022/12/15 08:57:39;;;;;;;29.77;18.48;;;;;;;-2.23;100.00;99701.31;5055169;28;20257;-74
2022/12/15 09:00:09;;;;;;;38.38;21.70;;;;;;;-2.19;100.00;99713.63;5055490;28;20222;-74
2022/12/15 09:02:36;;;;;;;29.20;18.65;;;;;;;-2.07;100.00;99712.69;5044306;28;20216;-76
2022/12/15 09:05:05;;;;;;;33.00;20.42;;;;;;;-1.98;100.00;99710.84;5054768;28;20220;-74
2022/12/15 09:07:31;;;;;;;34.50;19.95;;;;;;;-1.98;100.00;99710.00;5053758;28;20205;-74
2022/12/15 09:09:58;;;;;;;32.13;19.90;;;;;;;-1.96;100.00;99710.84;5055270;28;20224;-74
2022/12/15 09:12:24;;;;;;;33.25;20.35;;;;;;;-1.91;100.00;99720.47;5055852;28;20247;-75
2022/12/15 09:14:51;;;;;;;33.78;20.38;;;;;;;-1.89;100.00;99720.50;5055160;28;20220;-73
2022/12/15 09:17:19;;;;;;;33.92;20.73;;;;;;;-1.87;100.00;99725.75;5055446;28;20228;-73
2022/12/15 09:19:46;;;;;;;130.38;72.22;;;;;;;-1.85;100.00;99718.69;5078160;22;20259;-69
2022/12/15 09:22:12;;;;;;;112.63;60.50;;;;;;;-1.57;100.00;99716.75;5064231;28;20274;-76
2022/12/15 09:24:39;;;;;;;45.35;26.98;;;;;;;-1.41;100.00;99720.16;5059836;28;20233;-77
2022/12/15 09:27:05;;;;;;;36.60;20.77;;;;;;;-1.37;100.00;99728.06;5076531;28;20714;-74
2022/12/15 09:29:33;;;;;;;41.10;23.15;;;;;;;-1.22;100.00;99737.63;5074913;28;20738;-74
2022/12/15 09:32:00;;;;;;;41.97;21.17;;;;;;;-1.13;100.00;99748.13;5073131;28;20199;-74
2022/12/15 09:34:28;;;;;;;34.63;20.42;;;;;;;-1.08;100.00;99745.44;5077751;28;20626;-75
2022/12/15 09:36:55;;;;;;;37.20;21.17;;;;;;;-1.02;100.00;99742.72;5077261;28;20187;-76
2022/12/15 09:39:22;;;;;;;31.25;19.50;;;;;;;-1.00;100.00;99745.38;5078029;28;20613;-75
2022/12/15 09:41:53;;;;;;;35.78;21.33;;;;;;;-1.02;100.00;99752.44;5077526;28;20277;-76
2022/12/15 09:44:22;;;;;;;34.38;21.65;;;;;;;-1.01;100.00;99768.28;5076375;28;20188;-75
2022/12/15 09:47:04;;;;;;;37.72;21.52;;;;;;;-1.09;100.00;99759.53;5075403;28;20213;-75
2022/12/15 09:49:45;;;;;;;35.63;22.02;;;;;;;-1.29;100.00;99752.66;5072208;28;20308;-75
2022/12/15 09:52:14;;;;;;;33.25;21.05;;;;;;;-1.34;100.00;99751.78;5076876;28;20279;-75
2022/12/15 09:54:43;;;;;;;42.15;23.08;;;;;;;-1.30;100.00;99750.03;5075483;28;20272;-74
2022/12/15 09:57:19;;;;;;;37.10;22.80;;;;;;;-1.26;100.00;99749.13;5076706;28;20200;-74
2022/12/15 10:00:03;;;;;;;36.40;22.05;;;;;;;-1.15;100.00;99751.69;5072691;28;20596;-74
2022/12/15 10:02:54;;;;;;;36.63;21.67;;;;;;;-1.29;100.00;99747.38;5073595;28;20203;-74
2022/12/15 10:05:38;;;;;;;35.53;21.35;;;;;;;-1.20;100.00;99740.25;5066092;28;20243;-73
2022/12/15 10:08:05;;;;;;;35.97;20.75;;;;;;;-1.08;100.00;99735.75;5052366;28;20230;-75
2022/12/15 10:10:38;;;;;;;37.42;23.20;;;;;;;-1.00;100.00;99748.00;5053056;28;20597;-74
2022/12/15 10:13:10;;;;;;;38.75;23.20;;;;;;;-0.92;100.00;99762.06;5069833;28;20200;-74
2022/12/15 10:15:45;;;;;;;36.17;20.67;;;;;;;-0.95;100.00;99764.69;5072837;28;20197;-72
2022/12/15 10:18:20;;;;;;;36.13;22.50;;;;;;;-0.87;100.00;99766.38;5086612;28;20187;-73
2022/12/15 10:20:48;;;;;;;31.35;20.30;;;;;;;-0.84;100.00;99770.78;5075911;28;20224;-74
2022/12/15 10:23:17;;;;;;;37.08;23.23;;;;;;;-0.80;100.00;99771.63;5077124;28;20200;-75
2022/12/15 10:25:47;;;;;;;41.10;22.90;;;;;;;-1.03;100.00;99775.34;5076917;28;20195;-74
2022/12/15 10:28:40;;;;;;;38.17;24.08;;;;;;;-1.00;100.00;99775.31;5061734;28;20693;-74
2022/12/15 10:31:15;;;;;;;36.78;20.63;;;;;;;-1.00;100.00;99764.75;5071901;28;20226;-74
2022/12/15 10:33:44;;;;;;;36.95;22.08;;;;;;;-1.04;100.00;99768.31;5076506;28;20184;-73
2022/12/15 10:36:14;;;;;;;38.67;23.48;;;;;;;-1.06;100.00;99757.75;5076434;28;20199;-75
2022/12/15 10:38:44;;;;;;;36.50;21.60;;;;;;;-1.27;100.00;99765.84;5075568;28;20199;-73
2022/12/15 10:41:14;;;;;;;37.35;21.25;;;;;;;-1.28;100.00;99764.09;5076412;28;20216;-73
2022/12/15 10:43:42;;;;;;;33.70;20.65;;;;;;;-1.33;100.00;99753.56;5075516;28;20648;-74
2022/12/15 10:46:13;;;;;;;36.72;22.20;;;;;;;-1.25;100.00;99748.22;5060344;28;20201;-73
2022/12/15 10:48:40;;;;;;;38.97;22.00;;;;;;;-1.10;100.00;99739.28;5055294;28;20205;-74
2022/12/15 10:51:17;;;;;;;37.22;22.67;;;;;;;-1.03;100.00;99737.47;5072877;28;20216;-77
2022/12/15 10:53:46;;;;;;;38.88;22.15;;;;;;;-1.08;100.00;99740.16;5076358;28;20252;-74
2022/12/15 10:56:19;;;;;;;35.35;22.90;;;;;;;-1.08;100.00;99740.16;5076014;28;20216;-74
2022/12/15 10:58:48;;;;;;;38.95;22.40;;;;;;;-0.93;100.00;99744.41;5075768;28;20188;-73
2022/12/15 11:01:17;;;;;;;40.03;22.60;;;;;;;-0.92;100.00;99751.47;5078800;28;20311;-74
2022/12/15 11:03:44;;;;;;;37.85;21.17;;;;;;;-0.82;100.00;99742.56;5059806;28;20193;-73
2022/12/15 11:06:18;;;;;;;39.88;20.70;;;;;;;-0.80;100.00;99735.47;5059780;28;20201;-75
2022/12/15 11:08:46;;;;;;;37.72;22.95;;;;;;;-0.78;100.00;99736.34;5057250;28;20541;-73
2022/12/15 11:14:18;;;;;;;34.92;21.40;;;;;;;-0.51;100.00;99711.38;5075571;28;20568;-74
2022/12/15 11:16:49;;;;;;;40.45;21.33;;;;;;;-0.50;100.00;99718.44;5076055;28;20216;-73
2022/12/15 11:19:27;;;;;;;41.38;22.05;;;;;;;-0.43;100.00;99703.34;5075387;28;20185;-74
2022/12/15 11:21:59;;;;;;;37.75;21.38;;;;;;;-0.25;100.00;99703.13;5076287;28;20192;-74
2022/12/15 11:24:35;;;;;;;38.03;21.60;;;;;;;-0.33;100.00;99712.94;5076584;28;20211;-74
2022/12/15 11:27:10;;;;;;;44.45;24.75;;;;;;;-0.33;100.00;99715.56;5076306;28;20216;-74
2022/12/15 11:29:57;;;;;;;37.95;21.08;;;;;;;-0.15;100.00;99706.53;5074769;28;20216;-74
2022/12/15 11:32:26;;;;;;;39.28;21.10;;;;;;;-0.15;100.00;99698.59;5075446;28;20192;-73
2022/12/15 11:34:54;;;;;;;216.52;108.07;;;;;;;-0.05;100.00;99702.84;5076890;28;20204;-70
2022/12/15 11:37:41;;;;;;;71.57;38.17;;;;;;;-0.11;100.00;99705.59;5075029;28;20193;-74
2022/12/15 11:40:33;;;;;;;50.83;26.75;;;;;;;-0.08;100.00;99700.25;5073655;28;20217;-75
2022/12/15 11:43:17;;;;;;;46.92;23.27;;;;;;;-0.01;100.00;99685.16;5055104;28;20197;-74
2022/12/15 11:45:51;;;;;;;43.05;23.10;;;;;;;-0.21;100.00;99682.78;5072605;28;20188;-74
2022/12/15 11:48:21;;;;;;;43.65;22.75;;;;;;;-0.02;100.00;99676.38;5074042;28;20207;-75
2022/12/15 11:50:55;;;;;;;37.53;21.30;;;;;;;0.08;100.00;99674.44;5073594;28;20220;-73
2022/12/15 11:53:51;;;;;;;45.65;24.88;;;;;;;0.13;100.00;99671.72;5082594;28;20245;-73
2022/12/15 11:56:25;;;;;;;40.70;22.75;;;;;;;-0.16;100.00;99667.72;5079664;28;20287;-73
2022/12/15 11:59:05;;;;;;;42.90;23.33;;;;;;;-0.13;100.00;99669.47;5074799;28;20196;-73
2022/12/15 12:01:49;;;;;;;42.50;23.75;;;;;;;-0.08;100.00;99667.63;5076539;28;20260;-73
2022/12/15 12:04:20;;;;;;;41.97;22.20;;;;;;;0.02;100.00;99674.53;5075849;28;20296;-74
2022/12/15 12:07:01;;;;;;;37.17;21.65;;;;;;;-0.10;100.00;99672.94;5076190;28;20203;-74
2022/12/15 12:09:36;;;;;;;41.30;21.73;;;;;;;-0.01;100.00;99667.50;5075306;28;20231;-73
2022/12/15 12:12:13;;;;;;;41.53;21.20;;;;;;;0.06;100.00;99668.31;5075582;28;20204;-74
2022/12/15 12:14:51;;;;;;;40.88;21.42;;;;;;;-0.11;100.00;99659.75;5076574;28;20185;-73
2022/12/15 12:17:30;;;;;;;40.67;21.25;;;;;;;-0.18;100.00;99658.06;5081610;28;20306;-75
2022/12/15 12:20:01;;;;;;;46.42;22.23;;;;;;;-0.15;100.00;99666.84;5076966;28;20228;-76
2022/12/15 12:22:32;;;;;;;38.78;22.13;;;;;;;-0.04;100.00;99664.06;5075892;28;20207;-75
2022/12/15 12:25:03;;;;;;;38.80;21.95;;;;;;;0.00;100.00;99655.19;5076814;28;20200;-74
2022/12/15 12:27:38;;;;;;;39.58;20.60;;;;;;;-0.14;100.00;99639.47;5077760;28;20221;-73
2022/12/15 12:30:11;;;;;;;44.45;22.88;;;;;;;-0.02;100.00;99647.25;5075786;28;20287;-74
2022/12/15 12:32:46;;;;;;;42.92;22.15;;;;;;;0.12;100.00;99644.38;5074493;28;20264;-73
2022/12/15 12:35:16;;;;;;;41.78;21.55;;;;;;;0.19;100.00;99640.75;5075273;28;20596;-75
2022/12/15 12:37:49;;;;;;;42.28;22.77;;;;;;;0.16;100.00;99627.56;5075447;28;20199;-73
2022/12/15 12:40:24;;;;;;;40.05;21.55;;;;;;;-0.04;100.00;99611.09;5074304;28;20229;-74
2022/12/15 12:42:55;;;;;;;37.95;21.30;;;;;;;0.01;100.00;99608.38;5074072;28;20181;-75
2022/12/15 12:45:25;;;;;;;44.50;22.02;;;;;;;-0.17;100.00;99599.81;5073281;28;20218;-72
2022/12/15 12:47:54;;;;;;;36.45;20.58;;;;;;;-0.28;100.00;99591.16;5074007;28;20212;-74
2022/12/15 12:50:24;;;;;;;40.35;22.58;;;;;;;-0.24;100.00;99583.16;5074177;28;20242;-74
2022/12/15 12:52:54;;;;;;;39.75;21.70;;;;;;;-0.26;100.00;99584.94;5076062;28;20690;-76
2022/12/15 12:55:31;;;;;;;38.35;21.55;;;;;;;-0.41;100.00;99590.44;5077237;28;20200;-75
2022/12/15 12:57:58;;;;;;;39.28;20.55;;;;;;;-0.48;100.00;99594.06;5077669;28;20195;-73
2022/12/15 13:00:27;;;;;;;42.10;20.30;;;;;;;-0.61;100.00;99590.72;5080754;28;20312;-73
2022/12/15 13:03:17;;;;;;;40.40;20.67;;;;;;;-0.55;100.00;99587.13;5078945;28;20272;-74
2022/12/15 13:05:49;;;;;;;41.60;21.92;;;;;;;-0.69;100.00;99582.00;5079606;28;20239;-74
2022/12/15 13:08:25;;;;;;;37.75;20.95;;;;;;;-0.66;100.00;99585.50;5078406;28;20208;-75
2022/12/15 13:10:54;;;;;;;41.17;22.40;;;;;;;-0.72;100.00;99580.28;5082210;28;20220;-75
2022/12/15 13:13:44;;;;;;;37.30;20.40;;;;;;;-0.75;100.00;99572.38;5081723;28;20205;-75
2022/12/15 13:16:19;;;;;;;37.20;19.85;;;;;;;-0.82;100.00;99575.13;5077512;28;20558;-72
2022/12/15 13:18:57;;;;;;;38.40;20.20;;;;;;;-0.77;100.00;99562.72;5075331;28;20210;-74
2022/12/15 13:21:55;;;;;;;38.25;20.10;;;;;;;-0.70;100.00;99562.63;5075056;28;20232;-74
2022/12/15 13:24:32;;;;;;;36.83;19.80;;;;;;;-0.69;100.00;99563.50;5075321;28;20434;-74
2022/12/15 13:27:14;;;;;;;43.75;21.17;;;;;;;-0.67;100.00;99567.88;5075070;28;20218;-75
2022/12/15 13:30:00;;;;;;;41.50;22.33;;;;;;;-0.67;100.00;99564.34;5074518;28;20224;-73
2022/12/15 13:32:33;;;;;;;39.90;21.15;;;;;;;-0.70;100.00;99561.72;5074381;28;20296;-75
2022/12/15 13:35:19;;;;;;;38.60;21.27;;;;;;;-0.77;100.00;99554.78;5075507;28;20230;-75
2022/12/15 13:37:50;;;;;;;37.72;20.50;;;;;;;-0.78;100.00;99558.34;5074458;28;20200;-76
2022/12/15 13:40:32;;;;;;;36.17;18.80;;;;;;;-0.74;100.00;99552.97;5074740;28;20216;-74
2022/12/15 13:43:09;;;;;;;34.15;19.65;;;;;;;-0.76;100.00;99545.97;5075057;28;20196;-75
2022/12/15 13:45:46;;;;;;;39.72;19.83;;;;;;;-1.00;100.00;99542.72;5077450;28;20188;-74
2022/12/15 13:48:20;;;;;;;33.38;17.95;;;;;;;-0.98;100.00;99540.06;5075643;28;20242;-74